sensor_id;sensor_type;location;lat;lon;timestamp;temperature;humidity
20284;DHT22;10301;50.832;4.080;2023-02-18T00:01:46;12.00;99.90
20284;DHT22;10301;50.832;4.080;2023-02-18T00:04:11;11.80;99.90
20284;DHT22;10301;50.832;4.080;2023-02-18T00:06:37;11.70;99.90
20284;DHT22;10301;50.832;4.080;2023-02-18T00:09:04;11.90;99.90
20284;DHT22;10301;50.832;4.080;2023-02-18T00:11:34;11.90;99.90
20284;DHT22;10301;50.832;4.080;2023-02-18T00:14:02;12.00;99.90
20284;DHT22;10301;50.832;4.080;2023-02-18T00:16:29;11.90;99.90
20284;DHT22;10301;50.832;4.080;2023-02-18T00:19:00;11.70;99.90
20284;DHT22;10301;50.832;4.080;2023-02-18T00:21:26;11.80;99.90
20284;DHT22;10301;50.832;4.080;2023-02-18T00:23:51;11.90;99.90
20284;DHT22;10301;50.832;4.080;2023-02-18T00:26:18;11.90;99.90
20284;DHT22;10301;50.832;4.080;2023-02-18T00:28:45;11.80;99.90
20284;DHT22;10301;50.832;4.080;2023-02-18T00:31:21;11.80;99.90
20284;DHT22;10301;50.832;4.080;2023-02-18T00:33:47;11.70;99.90
20284;DHT22;10301;50.832;4.080;2023-02-18T00:36:14;11.60;99.90
20284;DHT22;10301;50.832;4.080;2023-02-18T00:38:52;11.70;99.90
20284;DHT22;10301;50.832;4.080;2023-02-18T00:41:19;11.80;99.90
20284;DHT22;10301;50.832;4.080;2023-02-18T00:43:45;11.70;99.90
20284;DHT22;10301;50.832;4.080;2023-02-18T00:46:12;11.70;99.90
20284;DHT22;10301;50.832;4.080;2023-02-18T00:48:38;11.60;99.90
20284;DHT22;10301;50.832;4.080;2023-02-18T00:51:04;11.60;99.90
20284;DHT22;10301;50.832;4.080;2023-02-18T00:53:30;11.60;99.90
20284;DHT22;10301;50.832;4.080;2023-02-18T00:55:56;11.60;99.90
20284;DHT22;10301;50.832;4.080;2023-02-18T00:58:22;11.60;99.90
20284;DHT22;10301;50.832;4.080;2023-02-18T01:00:48;11.60;99.90
20284;DHT22;10301;50.832;4.080;2023-02-18T01:03:14;11.60;99.90
20284;DHT22;10301;50.832;4.080;2023-02-18T01:05:41;11.70;99.90
20284;DHT22;10301;50.832;4.080;2023-02-18T01:08:08;11.70;99.90
20284;DHT22;10301;50.832;4.080;2023-02-18T01:10:35;11.70;99.90
20284;DHT22;10301;50.832;4.080;2023-02-18T01:13:01;11.50;99.90
20284;DHT22;10301;50.832;4.080;2023-02-18T01:15:29;11.60;99.90
20284;DHT22;10301;50.832;4.080;2023-02-18T01:17:55;11.60;99.90
20284;DHT22;10301;50.832;4.080;2023-02-18T01:20:20;11.50;99.90
20284;DHT22;10301;50.832;4.080;2023-02-18T01:22:46;11.60;99.90
20284;DHT22;10301;50.832;4.080;2023-02-18T01:25:13;11.60;99.90
20284;DHT22;10301;50.832;4.080;2023-02-18T01:27:39;11.50;99.90
20284;DHT22;10301;50.832;4.080;2023-02-18T01:30:05;11.50;99.90
20284;DHT22;10301;50.832;4.080;2023-02-18T01:32:32;11.40;99.90
20284;DHT22;10301;50.832;4.080;2023-02-18T01:35:00;11.40;99.90
20284;DHT22;10301;50.832;4.080;2023-02-18T01:37:26;11.30;99.90
20284;DHT22;10301;50.832;4.080;2023-02-18T01:39:52;11.30;99.90
20284;DHT22;10301;50.832;4.080;2023-02-18T01:42:24;11.30;99.90
20284;DHT22;10301;50.832;4.080;2023-02-18T01:44:51;11.20;99.90
20284;DHT22;10301;50.832;4.080;2023-02-18T01:47:17;11.40;99.90
20284;DHT22;10301;50.832;4.080;2023-02-18T01:49:48;11.30;99.90
20284;DHT22;10301;50.832;4.080;2023-02-18T01:52:21;11.20;99.90
20284;DHT22;10301;50.832;4.080;2023-02-18T01:54:50;11.30;99.90
20284;DHT22;10301;50.832;4.080;2023-02-18T01:57:29;11.30;99.90
20284;DHT22;10301;50.832;4.080;2023-02-18T01:59:57;11.30;99.90
20284;DHT22;10301;50.832;4.080;2023-02-18T02:02:28;11.30;99.90
20284;DHT22;10301;50.832;4.080;2023-02-18T02:04:56;11.20;99.90
20284;DHT22;10301;50.832;4.080;2023-02-18T02:07:23;11.30;99.90
20284;DHT22;10301;50.832;4.080;2023-02-18T02:09:52;11.30;99.90
20284;DHT22;10301;50.832;4.080;2023-02-18T02:12:22;11.30;99.90
20284;DHT22;10301;50.832;4.080;2023-02-18T02:17:58;11.40;99.90
20284;DHT22;10301;50.832;4.080;2023-02-18T02:35:05;11.40;99.90
20284;DHT22;10301;50.832;4.080;2023-02-18T02:38:10;11.40;99.90
20284;DHT22;10301;50.832;4.080;2023-02-18T02:52:14;11.20;99.90
20284;DHT22;10301;50.832;4.080;2023-02-18T02:54:22;11.20;99.90
20284;DHT22;10301;50.832;4.080;2023-02-18T02:56:48;11.20;99.90
20284;DHT22;10301;50.832;4.080;2023-02-18T02:59:18;11.30;99.90
20284;DHT22;10301;50.832;4.080;2023-02-18T03:04:42;11.30;99.90
20284;DHT22;10301;50.832;4.080;2023-02-18T03:13:06;11.30;99.90
20284;DHT22;10301;50.832;4.080;2023-02-18T03:18:44;11.10;99.90
20284;DHT22;10301;50.832;4.080;2023-02-18T03:21:15;11.10;99.90
20284;DHT22;10301;50.832;4.080;2023-02-18T03:23:57;11.00;99.90
20284;DHT22;10301;50.832;4.080;2023-02-18T03:26:25;11.20;99.90
20284;DHT22;10301;50.832;4.080;2023-02-18T03:28:54;11.10;99.90
20284;DHT22;10301;50.832;4.080;2023-02-18T03:31:24;11.20;99.90
20284;DHT22;10301;50.832;4.080;2023-02-18T03:33:56;11.10;99.90
20284;DHT22;10301;50.832;4.080;2023-02-18T03:36:23;11.20;99.90
20284;DHT22;10301;50.832;4.080;2023-02-18T03:38:58;11.10;99.90
20284;DHT22;10301;50.832;4.080;2023-02-18T03:41:24;11.00;99.90
20284;DHT22;10301;50.832;4.080;2023-02-18T03:43:59;11.20;99.90
20284;DHT22;10301;50.832;4.080;2023-02-18T03:46:29;11.20;99.90
20284;DHT22;10301;50.832;4.080;2023-02-18T03:48:54;11.10;99.90
20284;DHT22;10301;50.832;4.080;2023-02-18T03:51:20;11.10;99.90
20284;DHT22;10301;50.832;4.080;2023-02-18T03:53:46;11.00;99.90
20284;DHT22;10301;50.832;4.080;2023-02-18T03:56:12;11.00;99.90
20284;DHT22;10301;50.832;4.080;2023-02-18T03:58:37;10.90;99.90
20284;DHT22;10301;50.832;4.080;2023-02-18T04:01:04;10.90;99.90
20284;DHT22;10301;50.832;4.080;2023-02-18T04:03:30;11.00;99.90
20284;DHT22;10301;50.832;4.080;2023-02-18T04:05:56;11.00;99.90
20284;DHT22;10301;50.832;4.080;2023-02-18T04:08:21;11.00;99.90
20284;DHT22;10301;50.832;4.080;2023-02-18T04:10:47;11.00;99.90
20284;DHT22;10301;50.832;4.080;2023-02-18T04:13:13;10.90;99.90
20284;DHT22;10301;50.832;4.080;2023-02-18T04:15:38;10.90;99.90
20284;DHT22;10301;50.832;4.080;2023-02-18T04:18:04;11.00;99.90
20284;DHT22;10301;50.832;4.080;2023-02-18T04:20:30;10.90;99.90
20284;DHT22;10301;50.832;4.080;2023-02-18T04:22:56;10.90;99.90
20284;DHT22;10301;50.832;4.080;2023-02-18T04:25:21;11.00;99.90
20284;DHT22;10301;50.832;4.080;2023-02-18T04:27:47;11.00;99.90
20284;DHT22;10301;50.832;4.080;2023-02-18T04:30:13;10.90;99.90
20284;DHT22;10301;50.832;4.080;2023-02-18T04:32:39;10.90;99.90
20284;DHT22;10301;50.832;4.080;2023-02-18T04:35:05;10.90;99.90
20284;DHT22;10301;50.832;4.080;2023-02-18T04:37:31;10.90;99.90
20284;DHT22;10301;50.832;4.080;2023-02-18T04:39:56;10.90;99.90
20284;DHT22;10301;50.832;4.080;2023-02-18T04:42:22;10.90;99.90
20284;DHT22;10301;50.832;4.080;2023-02-18T04:44:48;10.90;99.90
20284;DHT22;10301;50.832;4.080;2023-02-18T04:47:14;10.80;99.90
20284;DHT22;10301;50.832;4.080;2023-02-18T04:49:40;10.90;99.90
20284;DHT22;10301;50.832;4.080;2023-02-18T04:52:05;10.80;99.90
20284;DHT22;10301;50.832;4.080;2023-02-18T04:54:31;10.80;99.90
20284;DHT22;10301;50.832;4.080;2023-02-18T04:56:57;10.80;99.90
20284;DHT22;10301;50.832;4.080;2023-02-18T04:59:23;10.80;99.90
20284;DHT22;10301;50.832;4.080;2023-02-18T05:01:49;10.90;99.90
20284;DHT22;10301;50.832;4.080;2023-02-18T05:04:14;10.90;99.90
20284;DHT22;10301;50.832;4.080;2023-02-18T05:06:42;10.80;99.90
20284;DHT22;10301;50.832;4.080;2023-02-18T05:09:08;10.70;99.90
20284;DHT22;10301;50.832;4.080;2023-02-18T05:11:34;10.70;99.90
20284;DHT22;10301;50.832;4.080;2023-02-18T05:13:59;10.60;99.90
20284;DHT22;10301;50.832;4.080;2023-02-18T05:16:25;10.70;99.90
20284;DHT22;10301;50.832;4.080;2023-02-18T05:18:51;10.60;99.90
20284;DHT22;10301;50.832;4.080;2023-02-18T05:21:16;10.70;99.90
20284;DHT22;10301;50.832;4.080;2023-02-18T05:23:42;10.70;99.90
20284;DHT22;10301;50.832;4.080;2023-02-18T05:26:08;10.60;99.90
20284;DHT22;10301;50.832;4.080;2023-02-18T05:28:33;10.60;99.90
20284;DHT22;10301;50.832;4.080;2023-02-18T05:30:59;10.70;99.90
20284;DHT22;10301;50.832;4.080;2023-02-18T05:33:25;10.60;99.90
20284;DHT22;10301;50.832;4.080;2023-02-18T05:35:51;10.60;99.90
20284;DHT22;10301;50.832;4.080;2023-02-18T05:38:16;10.60;99.90
20284;DHT22;10301;50.832;4.080;2023-02-18T05:40:42;10.60;99.90
20284;DHT22;10301;50.832;4.080;2023-02-18T05:43:08;10.60;99.90
20284;DHT22;10301;50.832;4.080;2023-02-18T05:45:34;10.70;99.90
20284;DHT22;10301;50.832;4.080;2023-02-18T05:48:00;10.60;99.90
20284;DHT22;10301;50.832;4.080;2023-02-18T05:50:25;10.70;99.90
20284;DHT22;10301;50.832;4.080;2023-02-18T05:52:51;10.70;99.90
20284;DHT22;10301;50.832;4.080;2023-02-18T05:55:17;10.70;99.90
20284;DHT22;10301;50.832;4.080;2023-02-18T05:57:42;10.70;99.90
20284;DHT22;10301;50.832;4.080;2023-02-18T06:00:09;10.70;99.90
20284;DHT22;10301;50.832;4.080;2023-02-18T06:02:35;10.80;99.90
20284;DHT22;10301;50.832;4.080;2023-02-18T06:05:01;10.80;99.90
20284;DHT22;10301;50.832;4.080;2023-02-18T06:07:27;10.90;99.20
20284;DHT22;10301;50.832;4.080;2023-02-18T06:09:52;10.90;97.90
20284;DHT22;10301;50.832;4.080;2023-02-18T06:12:18;10.80;97.30
20284;DHT22;10301;50.832;4.080;2023-02-18T06:14:44;10.90;96.90
20284;DHT22;10301;50.832;4.080;2023-02-18T06:17:13;10.90;97.30
20284;DHT22;10301;50.832;4.080;2023-02-18T06:19:39;11.00;95.40
20284;DHT22;10301;50.832;4.080;2023-02-18T06:22:06;10.80;95.60
20284;DHT22;10301;50.832;4.080;2023-02-18T06:24:32;10.90;95.90
20284;DHT22;10301;50.832;4.080;2023-02-18T06:26:58;10.90;95.30
20284;DHT22;10301;50.832;4.080;2023-02-18T06:29:24;10.80;96.20
20284;DHT22;10301;50.832;4.080;2023-02-18T06:31:50;10.80;96.70
20284;DHT22;10301;50.832;4.080;2023-02-18T06:34:16;10.80;95.40
20284;DHT22;10301;50.832;4.080;2023-02-18T06:36:41;10.70;96.50
20284;DHT22;10301;50.832;4.080;2023-02-18T06:39:07;10.80;95.80
20284;DHT22;10301;50.832;4.080;2023-02-18T06:41:33;10.70;95.50
20284;DHT22;10301;50.832;4.080;2023-02-18T06:43:59;10.80;94.70
20284;DHT22;10301;50.832;4.080;2023-02-18T06:46:24;10.80;94.60
20284;DHT22;10301;50.832;4.080;2023-02-18T06:48:50;10.90;93.30
20284;DHT22;10301;50.832;4.080;2023-02-18T06:51:16;10.90;92.70
20284;DHT22;10301;50.832;4.080;2023-02-18T06:53:44;10.80;94.50
20284;DHT22;10301;50.832;4.080;2023-02-18T06:56:10;10.80;95.10
20284;DHT22;10301;50.832;4.080;2023-02-18T06:58:37;10.70;96.00
20284;DHT22;10301;50.832;4.080;2023-02-18T07:01:03;10.80;95.70
20284;DHT22;10301;50.832;4.080;2023-02-18T07:03:29;10.90;93.80
20284;DHT22;10301;50.832;4.080;2023-02-18T07:05:55;10.90;93.50
20284;DHT22;10301;50.832;4.080;2023-02-18T07:08:21;10.90;92.50
20284;DHT22;10301;50.832;4.080;2023-02-18T07:10:47;10.90;94.30
20284;DHT22;10301;50.832;4.080;2023-02-18T07:13:13;10.80;94.90
20284;DHT22;10301;50.832;4.080;2023-02-18T07:15:39;10.70;96.40
20284;DHT22;10301;50.832;4.080;2023-02-18T07:18:05;10.90;94.70
20284;DHT22;10301;50.832;4.080;2023-02-18T07:20:31;10.90;94.70
20284;DHT22;10301;50.832;4.080;2023-02-18T07:22:57;10.90;94.80
20284;DHT22;10301;50.832;4.080;2023-02-18T07:25:22;10.90;93.80
20284;DHT22;10301;50.832;4.080;2023-02-18T07:27:48;11.00;94.10
20284;DHT22;10301;50.832;4.080;2023-02-18T07:30:14;10.90;95.40
20284;DHT22;10301;50.832;4.080;2023-02-18T07:32:40;10.90;95.00
20284;DHT22;10301;50.832;4.080;2023-02-18T07:35:06;10.80;94.30
20284;DHT22;10301;50.832;4.080;2023-02-18T07:37:32;10.80;94.20
20284;DHT22;10301;50.832;4.080;2023-02-18T07:39:57;11.00;92.40
20284;DHT22;10301;50.832;4.080;2023-02-18T07:42:24;10.90;92.80
20284;DHT22;10301;50.832;4.080;2023-02-18T07:44:49;11.00;91.80
20284;DHT22;10301;50.832;4.080;2023-02-18T07:47:16;10.90;91.60
20284;DHT22;10301;50.832;4.080;2023-02-18T07:49:44;11.10;90.90
20284;DHT22;10301;50.832;4.080;2023-02-18T07:52:10;11.10;89.50
20284;DHT22;10301;50.832;4.080;2023-02-18T07:54:35;11.00;90.10
20284;DHT22;10301;50.832;4.080;2023-02-18T07:57:01;11.00;92.00
20284;DHT22;10301;50.832;4.080;2023-02-18T07:59:27;11.10;91.60
20284;DHT22;10301;50.832;4.080;2023-02-18T08:01:52;11.30;89.40
20284;DHT22;10301;50.832;4.080;2023-02-18T08:04:18;11.10;89.70
20284;DHT22;10301;50.832;4.080;2023-02-18T08:06:45;11.20;88.20
20284;DHT22;10301;50.832;4.080;2023-02-18T08:09:12;11.20;86.00
20284;DHT22;10301;50.832;4.080;2023-02-18T08:11:38;11.30;84.60
20284;DHT22;10301;50.832;4.080;2023-02-18T08:14:04;11.30;79.80
20284;DHT22;10301;50.832;4.080;2023-02-18T08:16:30;11.30;82.90
20284;DHT22;10301;50.832;4.080;2023-02-18T08:18:56;11.30;80.60
20284;DHT22;10301;50.832;4.080;2023-02-18T08:21:24;11.20;82.60
20284;DHT22;10301;50.832;4.080;2023-02-18T08:23:51;11.20;83.30
20284;DHT22;10301;50.832;4.080;2023-02-18T08:26:17;11.30;80.90
20284;DHT22;10301;50.832;4.080;2023-02-18T08:28:45;11.30;81.90
20284;DHT22;10301;50.832;4.080;2023-02-18T08:31:19;11.40;75.70
20284;DHT22;10301;50.832;4.080;2023-02-18T08:33:45;11.40;79.50
20284;DHT22;10301;50.832;4.080;2023-02-18T08:36:11;11.40;78.60
20284;DHT22;10301;50.832;4.080;2023-02-18T08:38:37;11.40;75.80
20284;DHT22;10301;50.832;4.080;2023-02-18T08:41:05;11.30;81.30
20284;DHT22;10301;50.832;4.080;2023-02-18T08:43:31;11.30;77.10
20284;DHT22;10301;50.832;4.080;2023-02-18T08:45:58;11.40;78.30
20284;DHT22;10301;50.832;4.080;2023-02-18T08:48:24;11.40;75.60
20284;DHT22;10301;50.832;4.080;2023-02-18T08:50:50;11.40;74.10
20284;DHT22;10301;50.832;4.080;2023-02-18T08:53:16;11.40;78.30
20284;DHT22;10301;50.832;4.080;2023-02-18T08:55:42;11.40;78.10
20284;DHT22;10301;50.832;4.080;2023-02-18T08:58:08;11.30;79.70
20284;DHT22;10301;50.832;4.080;2023-02-18T09:00:36;11.40;79.30
20284;DHT22;10301;50.832;4.080;2023-02-18T09:03:03;11.50;76.60
20284;DHT22;10301;50.832;4.080;2023-02-18T09:05:29;11.60;72.50
20284;DHT22;10301;50.832;4.080;2023-02-18T09:07:54;11.60;73.80
20284;DHT22;10301;50.832;4.080;2023-02-18T09:10:20;11.60;73.00
20284;DHT22;10301;50.832;4.080;2023-02-18T09:12:46;11.50;78.00
20284;DHT22;10301;50.832;4.080;2023-02-18T09:15:11;11.50;80.80
20284;DHT22;10301;50.832;4.080;2023-02-18T09:17:37;11.50;78.80
20284;DHT22;10301;50.832;4.080;2023-02-18T09:20:03;11.80;76.20
20284;DHT22;10301;50.832;4.080;2023-02-18T09:22:29;11.90;73.20
20284;DHT22;10301;50.832;4.080;2023-02-18T09:24:57;11.80;70.80
20284;DHT22;10301;50.832;4.080;2023-02-18T09:27:22;11.80;75.00
20284;DHT22;10301;50.832;4.080;2023-02-18T09:29:48;11.90;71.20
20284;DHT22;10301;50.832;4.080;2023-02-18T09:32:15;11.80;76.90
20284;DHT22;10301;50.832;4.080;2023-02-18T09:34:43;11.90;75.90
20284;DHT22;10301;50.832;4.080;2023-02-18T09:37:09;11.80;79.50
20284;DHT22;10301;50.832;4.080;2023-02-18T09:39:35;11.90;77.50
20284;DHT22;10301;50.832;4.080;2023-02-18T09:42:03;11.80;82.20
20284;DHT22;10301;50.832;4.080;2023-02-18T09:44:34;12.00;76.60
20284;DHT22;10301;50.832;4.080;2023-02-18T09:47:40;11.90;80.40
20284;DHT22;10301;50.832;4.080;2023-02-18T09:52:35;12.20;76.80
20284;DHT22;10301;50.832;4.080;2023-02-18T09:55:23;12.30;74.60
20284;DHT22;10301;50.832;4.080;2023-02-18T09:58:01;12.30;76.70
20284;DHT22;10301;50.832;4.080;2023-02-18T10:00:38;12.30;75.20
20284;DHT22;10301;50.832;4.080;2023-02-18T10:03:14;12.30;78.80
20284;DHT22;10301;50.832;4.080;2023-02-18T10:05:45;12.40;77.60
20284;DHT22;10301;50.832;4.080;2023-02-18T10:08:27;12.40;80.40
20284;DHT22;10301;50.832;4.080;2023-02-18T10:10:54;12.50;75.70
20284;DHT22;10301;50.832;4.080;2023-02-18T10:13:26;12.30;78.50
20284;DHT22;10301;50.832;4.080;2023-02-18T10:15:53;12.40;78.20
20284;DHT22;10301;50.832;4.080;2023-02-18T10:18:41;12.60;75.00
20284;DHT22;10301;50.832;4.080;2023-02-18T10:21:23;12.50;75.80
20284;DHT22;10301;50.832;4.080;2023-02-18T10:24:13;12.50;76.60
20284;DHT22;10301;50.832;4.080;2023-02-18T10:26:44;12.50;79.20
20284;DHT22;10301;50.832;4.080;2023-02-18T10:29:15;12.50;76.20
20284;DHT22;10301;50.832;4.080;2023-02-18T10:31:55;12.50;78.80
20284;DHT22;10301;50.832;4.080;2023-02-18T10:34:40;12.60;78.50
20284;DHT22;10301;50.832;4.080;2023-02-18T10:43:02;12.60;76.70
20284;DHT22;10301;50.832;4.080;2023-02-18T10:49:14;12.60;77.10
20284;DHT22;10301;50.832;4.080;2023-02-18T10:51:36;12.30;86.40
20284;DHT22;10301;50.832;4.080;2023-02-18T10:54:06;12.30;86.10
20284;DHT22;10301;50.832;4.080;2023-02-18T10:56:40;12.40;83.90
20284;DHT22;10301;50.832;4.080;2023-02-18T10:59:14;12.50;78.80
20284;DHT22;10301;50.832;4.080;2023-02-18T11:01:43;12.50;82.50
20284;DHT22;10301;50.832;4.080;2023-02-18T11:04:17;12.70;81.10
20284;DHT22;10301;50.832;4.080;2023-02-18T11:06:47;12.90;75.20
20284;DHT22;10301;50.832;4.080;2023-02-18T11:09:41;12.80;79.30
20284;DHT22;10301;50.832;4.080;2023-02-18T11:15:22;13.10;69.40
20284;DHT22;10301;50.832;4.080;2023-02-18T11:17:50;13.00;69.60
20284;DHT22;10301;50.832;4.080;2023-02-18T11:22:48;13.00;72.00
20284;DHT22;10301;50.832;4.080;2023-02-18T11:25:24;13.00;76.80
20284;DHT22;10301;50.832;4.080;2023-02-18T11:27:56;13.10;71.50
20284;DHT22;10301;50.832;4.080;2023-02-18T11:30:25;13.20;69.90
20284;DHT22;10301;50.832;4.080;2023-02-18T11:33:20;13.20;67.40
20284;DHT22;10301;50.832;4.080;2023-02-18T11:35:53;13.20;66.20
20284;DHT22;10301;50.832;4.080;2023-02-18T11:38:40;13.00;72.70
20284;DHT22;10301;50.832;4.080;2023-02-18T11:41:10;13.10;69.60
20284;DHT22;10301;50.832;4.080;2023-02-18T11:43:41;13.30;65.10
20284;DHT22;10301;50.832;4.080;2023-02-18T11:48:39;13.10;65.50
20284;DHT22;10301;50.832;4.080;2023-02-18T11:51:13;13.30;61.80
20284;DHT22;10301;50.832;4.080;2023-02-18T11:53:59;13.20;65.80
20284;DHT22;10301;50.832;4.080;2023-02-18T11:56:27;13.30;61.90
20284;DHT22;10301;50.832;4.080;2023-02-18T11:58:54;13.20;64.30
20284;DHT22;10301;50.832;4.080;2023-02-18T12:04:17;13.30;61.30
20284;DHT22;10301;50.832;4.080;2023-02-18T12:09:36;13.20;63.50
20284;DHT22;10301;50.832;4.080;2023-02-18T12:12:17;13.20;66.40
20284;DHT22;10301;50.832;4.080;2023-02-18T12:14:44;13.20;63.80
20284;DHT22;10301;50.832;4.080;2023-02-18T12:25:39;13.80;50.40
20284;DHT22;10301;50.832;4.080;2023-02-18T12:28:23;13.80;52.20
20284;DHT22;10301;50.832;4.080;2023-02-18T12:31:09;13.40;61.10
20284;DHT22;10301;50.832;4.080;2023-02-18T12:34:22;13.60;55.10
20284;DHT22;10301;50.832;4.080;2023-02-18T12:43:12;13.40;58.50
20284;DHT22;10301;50.832;4.080;2023-02-18T12:45:47;13.30;59.90
20284;DHT22;10301;50.832;4.080;2023-02-18T13:07:50;12.70;91.80
20284;DHT22;10301;50.832;4.080;2023-02-18T13:10:51;12.60;91.60
20284;DHT22;10301;50.832;4.080;2023-02-18T13:13:24;12.50;92.70
20284;DHT22;10301;50.832;4.080;2023-02-18T13:16:10;12.60;92.90
20284;DHT22;10301;50.832;4.080;2023-02-18T13:18:41;12.80;90.10
20284;DHT22;10301;50.832;4.080;2023-02-18T13:21:12;12.80;88.00
20284;DHT22;10301;50.832;4.080;2023-02-18T13:23:54;12.70;88.40
20284;DHT22;10301;50.832;4.080;2023-02-18T13:26:21;12.60;91.60
20284;DHT22;10301;50.832;4.080;2023-02-18T13:32:21;12.50;94.90
20284;DHT22;10301;50.832;4.080;2023-02-18T13:36:57;12.20;97.90
20284;DHT22;10301;50.832;4.080;2023-02-18T13:39:25;12.00;99.90
20284;DHT22;10301;50.832;4.080;2023-02-18T13:47:43;11.90;99.90
20284;DHT22;10301;50.832;4.080;2023-02-18T13:50:39;11.90;99.90
20284;DHT22;10301;50.832;4.080;2023-02-18T13:55:59;11.90;99.90
20284;DHT22;10301;50.832;4.080;2023-02-18T14:03:53;12.00;99.90
20284;DHT22;10301;50.832;4.080;2023-02-18T14:06:32;12.20;99.30
20284;DHT22;10301;50.832;4.080;2023-02-18T14:09:45;12.10;99.90
20284;DHT22;10301;50.832;4.080;2023-02-18T14:11:56;12.00;99.90
20284;DHT22;10301;50.832;4.080;2023-02-18T14:25:03;12.20;99.20
20284;DHT22;10301;50.832;4.080;2023-02-18T14:27:40;12.20;98.30
20284;DHT22;10301;50.832;4.080;2023-02-18T14:32:42;12.10;99.70
20284;DHT22;10301;50.832;4.080;2023-02-18T14:35:38;12.40;97.30
20284;DHT22;10301;50.832;4.080;2023-02-18T14:38:14;12.40;96.30
20284;DHT22;10301;50.832;4.080;2023-02-18T14:49:57;12.40;97.20
20284;DHT22;10301;50.832;4.080;2023-02-18T14:52:33;12.10;99.10
20284;DHT22;10301;50.832;4.080;2023-02-18T14:55:02;12.30;99.60
20284;DHT22;10301;50.832;4.080;2023-02-18T15:00:15;12.50;96.30
20284;DHT22;10301;50.832;4.080;2023-02-18T15:02:42;12.50;96.40
20284;DHT22;10301;50.832;4.080;2023-02-18T15:05:17;12.50;95.40
20284;DHT22;10301;50.832;4.080;2023-02-18T15:07:56;12.40;96.20
20284;DHT22;10301;50.832;4.080;2023-02-18T15:13:01;12.40;96.90
20284;DHT22;10301;50.832;4.080;2023-02-18T15:15:27;12.40;96.50
20284;DHT22;10301;50.832;4.080;2023-02-18T15:17:52;12.40;96.00
20284;DHT22;10301;50.832;4.080;2023-02-18T15:20:19;12.50;95.10
20284;DHT22;10301;50.832;4.080;2023-02-18T15:22:44;12.30;96.90
20284;DHT22;10301;50.832;4.080;2023-02-18T15:25:12;12.20;97.70
20284;DHT22;10301;50.832;4.080;2023-02-18T15:27:41;12.30;98.40
20284;DHT22;10301;50.832;4.080;2023-02-18T15:30:18;12.50;96.70
20284;DHT22;10301;50.832;4.080;2023-02-18T15:32:53;12.60;94.70
20284;DHT22;10301;50.832;4.080;2023-02-18T15:35:21;12.40;96.20
20284;DHT22;10301;50.832;4.080;2023-02-18T15:37:52;12.40;95.40
20284;DHT22;10301;50.832;4.080;2023-02-18T15:40:20;12.40;94.30
20284;DHT22;10301;50.832;4.080;2023-02-18T15:42:50;12.40;94.60
20284;DHT22;10301;50.832;4.080;2023-02-18T15:45:24;12.40;94.50
20284;DHT22;10301;50.832;4.080;2023-02-18T15:47:56;12.30;95.40
20284;DHT22;10301;50.832;4.080;2023-02-18T15:50:34;12.20;95.90
20284;DHT22;10301;50.832;4.080;2023-02-18T15:53:06;12.10;97.80
20284;DHT22;10301;50.832;4.080;2023-02-18T15:55:38;12.40;94.90
20284;DHT22;10301;50.832;4.080;2023-02-18T15:58:09;12.50;94.30
20284;DHT22;10301;50.832;4.080;2023-02-18T16:00:40;12.30;95.20
20284;DHT22;10301;50.832;4.080;2023-02-18T16:03:15;12.40;94.30
20284;DHT22;10301;50.832;4.080;2023-02-18T16:05:41;12.20;95.80
20284;DHT22;10301;50.832;4.080;2023-02-18T16:08:26;12.20;96.00
20284;DHT22;10301;50.832;4.080;2023-02-18T16:11:01;12.40;95.00
20284;DHT22;10301;50.832;4.080;2023-02-18T16:13:28;12.20;96.40
20284;DHT22;10301;50.832;4.080;2023-02-18T16:15:55;12.30;94.30
20284;DHT22;10301;50.832;4.080;2023-02-18T16:18:34;12.20;95.10
20284;DHT22;10301;50.832;4.080;2023-02-18T16:21:04;12.20;96.10
20284;DHT22;10301;50.832;4.080;2023-02-18T16:23:45;11.90;98.50
20284;DHT22;10301;50.832;4.080;2023-02-18T16:29:12;12.00;98.00
20284;DHT22;10301;50.832;4.080;2023-02-18T16:31:38;12.00;97.40
20284;DHT22;10301;50.832;4.080;2023-02-18T16:34:04;12.00;97.90
20284;DHT22;10301;50.832;4.080;2023-02-18T16:36:30;12.00;97.90
20284;DHT22;10301;50.832;4.080;2023-02-18T16:38:56;12.00;98.20
20284;DHT22;10301;50.832;4.080;2023-02-18T16:41:23;12.00;98.00
20284;DHT22;10301;50.832;4.080;2023-02-18T16:43:49;12.00;98.60
20284;DHT22;10301;50.832;4.080;2023-02-18T16:46:20;12.00;98.70
20284;DHT22;10301;50.832;4.080;2023-02-18T16:48:51;12.10;97.80
20284;DHT22;10301;50.832;4.080;2023-02-18T16:53:47;11.90;99.30
20284;DHT22;10301;50.832;4.080;2023-02-18T16:56:15;12.00;98.30
20284;DHT22;10301;50.832;4.080;2023-02-18T16:58:41;12.00;98.80
20284;DHT22;10301;50.832;4.080;2023-02-18T17:01:33;12.10;97.90
20284;DHT22;10301;50.832;4.080;2023-02-18T17:03:59;12.00;98.40
20284;DHT22;10301;50.832;4.080;2023-02-18T17:06:26;12.00;98.20
20284;DHT22;10301;50.832;4.080;2023-02-18T17:08:51;11.90;99.30
20284;DHT22;10301;50.832;4.080;2023-02-18T17:11:20;11.80;99.90
20284;DHT22;10301;50.832;4.080;2023-02-18T17:13:47;11.80;99.90
20284;DHT22;10301;50.832;4.080;2023-02-18T17:16:14;11.70;99.90
20284;DHT22;10301;50.832;4.080;2023-02-18T17:18:40;11.80;99.90
20284;DHT22;10301;50.832;4.080;2023-02-18T17:21:20;11.90;99.90
20284;DHT22;10301;50.832;4.080;2023-02-18T17:23:46;11.90;99.90
20284;DHT22;10301;50.832;4.080;2023-02-18T17:26:17;11.90;99.90
20284;DHT22;10301;50.832;4.080;2023-02-18T17:28:44;11.90;99.90
20284;DHT22;10301;50.832;4.080;2023-02-18T17:31:18;11.80;99.90
20284;DHT22;10301;50.832;4.080;2023-02-18T17:33:45;11.80;99.90
20284;DHT22;10301;50.832;4.080;2023-02-18T17:36:12;11.70;99.90
20284;DHT22;10301;50.832;4.080;2023-02-18T17:38:38;11.70;99.90
20284;DHT22;10301;50.832;4.080;2023-02-18T17:41:05;11.80;99.90
20284;DHT22;10301;50.832;4.080;2023-02-18T17:43:30;11.80;99.90
20284;DHT22;10301;50.832;4.080;2023-02-18T17:45:57;11.80;99.90
20284;DHT22;10301;50.832;4.080;2023-02-18T17:48:23;11.80;99.90
20284;DHT22;10301;50.832;4.080;2023-02-18T17:50:50;11.90;99.90
20284;DHT22;10301;50.832;4.080;2023-02-18T17:53:16;11.90;99.90
20284;DHT22;10301;50.832;4.080;2023-02-18T17:55:44;11.80;99.90
20284;DHT22;10301;50.832;4.080;2023-02-18T17:58:10;11.90;99.90
20284;DHT22;10301;50.832;4.080;2023-02-18T18:00:39;11.80;99.90
20284;DHT22;10301;50.832;4.080;2023-02-18T18:03:05;11.70;99.90
20284;DHT22;10301;50.832;4.080;2023-02-18T18:05:33;11.50;99.90
20284;DHT22;10301;50.832;4.080;2023-02-18T18:08:01;11.60;99.90
20284;DHT22;10301;50.832;4.080;2023-02-18T18:10:29;11.60;99.90
20284;DHT22;10301;50.832;4.080;2023-02-18T18:13:02;11.60;99.90
20284;DHT22;10301;50.832;4.080;2023-02-18T18:15:34;11.60;99.90
20284;DHT22;10301;50.832;4.080;2023-02-18T18:18:00;11.70;99.90